createdAt,value
2019-02-03T00:00:27.383Z,-1.90
2019-02-03T00:01:27.390Z,-1.95
2019-02-03T00:02:27.392Z,-1.97
2019-02-03T00:03:27.397Z,-1.98
2019-02-03T00:04:27.403Z,-2.09
2019-02-03T00:05:27.408Z,-2.10
2019-02-03T00:06:27.416Z,-2.10
2019-02-03T00:07:27.417Z,-2.10
2019-02-03T00:08:27.423Z,-2.13
2019-02-03T00:09:27.427Z,-2.12
2019-02-03T00:10:27.437Z,-2.08
2019-02-03T00:11:27.441Z,-2.10
2019-02-03T00:12:27.442Z,-2.03
2019-02-03T00:13:27.451Z,-2.08
2019-02-03T00:14:27.454Z,-2.03
2019-02-03T00:15:27.462Z,-2.02
2019-02-03T00:16:27.463Z,-1.95
2019-02-03T00:17:27.470Z,-1.97
2019-02-03T00:18:27.477Z,-1.92
2019-02-03T00:19:27.481Z,-1.95
2019-02-03T00:20:27.485Z,-1.92
2019-02-03T00:21:27.492Z,-1.82
2019-02-03T00:22:27.494Z,-1.90
2019-02-03T00:23:27.501Z,-1.85
2019-02-03T00:24:27.504Z,-1.80
2019-02-03T00:25:27.511Z,-1.85
2019-02-03T00:26:27.512Z,-1.82
2019-02-03T00:27:27.520Z,-1.82
2019-02-03T00:28:27.524Z,-1.74
2019-02-03T00:29:27.531Z,-1.74
2019-02-03T00:30:27.535Z,-1.76
2019-02-03T00:31:27.539Z,-1.84
2019-02-03T00:32:27.545Z,-1.73
2019-02-03T00:33:27.549Z,-1.80
2019-02-03T00:34:27.557Z,-1.85
2019-02-03T00:35:27.560Z,-1.69
2019-02-03T00:36:27.564Z,-1.79
2019-02-03T00:37:27.569Z,-1.80
2019-02-03T00:38:27.574Z,-1.77
2019-02-03T00:39:27.584Z,-1.77
2019-02-03T00:40:27.663Z,-1.82
2019-02-03T00:41:27.614Z,-1.85
2019-02-03T00:42:27.597Z,-1.82
2019-02-03T00:43:27.601Z,-1.85
2019-02-03T00:44:27.605Z,-1.79
2019-02-03T00:45:27.613Z,-1.77
2019-02-03T00:46:27.614Z,-1.90
2019-02-03T00:47:27.622Z,-1.91
2019-02-03T00:48:27.714Z,-1.91
2019-02-03T00:49:27.629Z,-1.87
2019-02-03T00:50:27.637Z,-1.95
2019-02-03T00:51:27.640Z,-1.92
2019-02-03T00:52:27.648Z,-1.94
2019-02-03T00:53:27.650Z,-1.98
2019-02-03T00:54:27.654Z,-1.91
2019-02-03T00:55:27.660Z,-1.94
2019-02-03T00:56:27.667Z,-1.90
2019-02-03T00:57:27.674Z,-1.91
2019-02-03T00:58:27.675Z,-1.90
2019-02-03T00:59:27.680Z,-1.91
2019-02-03T01:00:27.685Z,-1.88
2019-02-03T01:01:27.707Z,-1.98
2019-02-03T01:02:27.694Z,-1.92
2019-02-03T01:03:27.701Z,-1.95
2019-02-03T01:04:27.705Z,-1.94
2019-02-03T01:05:27.709Z,-1.98
2019-02-03T01:06:27.714Z,-1.98
2019-02-03T01:07:27.967Z,-1.95
2019-02-03T01:08:27.726Z,-1.95
2019-02-03T01:09:27.728Z,-1.94
2019-02-03T01:10:27.733Z,-2.02
2019-02-03T01:11:27.738Z,-2.00
2019-02-03T01:12:27.742Z,-1.97
2019-02-03T01:13:27.750Z,-1.92
2019-02-03T01:14:27.755Z,-1.98
2019-02-03T01:15:27.759Z,-1.95
2019-02-03T01:16:27.762Z,-1.92
2019-02-03T01:17:27.767Z,-1.95
2019-02-03T01:18:27.774Z,-1.90
2019-02-03T01:19:27.778Z,-1.95
2019-02-03T01:20:27.782Z,-1.95
2019-02-03T01:21:27.789Z,-1.95
2019-02-03T01:22:27.794Z,-2.08
2019-02-03T01:23:27.797Z,-2.03
2019-02-03T01:24:27.801Z,-2.02
2019-02-03T01:25:27.808Z,-2.02
2019-02-03T01:26:27.812Z,-2.06
2019-02-03T01:27:27.830Z,-2.05
2019-02-03T01:28:27.820Z,-2.03
2019-02-03T01:29:27.826Z,-2.13
2019-02-03T01:30:27.832Z,-2.08
2019-02-03T01:31:27.839Z,-2.02
2019-02-03T01:32:27.843Z,-2.13
2019-02-03T01:33:27.845Z,-2.09
2019-02-03T01:34:27.852Z,-2.06
2019-02-03T01:35:27.855Z,-2.12
2019-02-03T01:36:27.859Z,-2.09
2019-02-03T01:37:38.954Z,-2.05
2019-02-03T01:38:27.872Z,-2.13
2019-02-03T01:39:27.882Z,-2.08
2019-02-03T01:40:27.878Z,-2.05
2019-02-03T01:41:27.889Z,-2.10
2019-02-03T01:42:27.890Z,-2.15
2019-02-03T01:43:27.894Z,-2.13
2019-02-03T01:44:27.904Z,-2.10
2019-02-03T01:45:27.904Z,-2.10
2019-02-03T01:46:27.908Z,-2.16
2019-02-03T01:47:27.916Z,-2.10
2019-02-03T01:48:27.921Z,-2.15
2019-02-03T01:49:27.922Z,-2.18
2019-02-03T01:50:27.930Z,-2.18
2019-02-03T01:51:27.933Z,-2.23
2019-02-03T01:52:27.935Z,-2.32
2019-02-03T01:53:27.941Z,-2.20
2019-02-03T01:54:27.948Z,-2.20
2019-02-03T01:55:27.953Z,-2.26
2019-02-03T01:56:27.962Z,-2.21
2019-02-03T01:57:27.961Z,-2.26
2019-02-03T01:58:27.968Z,-2.26
2019-02-03T01:59:27.970Z,-2.20
2019-02-03T02:00:27.977Z,-2.24
2019-02-03T02:01:27.978Z,-2.18
2019-02-03T02:02:27.983Z,-2.26
2019-02-03T02:03:27.987Z,-2.23
2019-02-03T02:04:27.991Z,-2.27
2019-02-03T02:05:27.996Z,-2.24
2019-02-03T02:06:28.005Z,-2.23
2019-02-03T02:07:28.007Z,-2.24
2019-02-03T02:08:28.014Z,-2.24
2019-02-03T02:09:28.018Z,-2.32
2019-02-03T02:10:28.020Z,-2.32
2019-02-03T02:11:28.025Z,-2.32
2019-02-03T02:12:28.028Z,-2.32
2019-02-03T02:13:28.034Z,-2.34
2019-02-03T02:14:28.038Z,-2.37
2019-02-03T02:15:28.044Z,-2.39
2019-02-03T02:16:28.047Z,-2.34
2019-02-03T02:17:28.051Z,-2.35
2019-02-03T02:18:28.056Z,-2.43
2019-02-03T02:19:28.060Z,-2.45
2019-02-03T02:20:28.069Z,-2.43
2019-02-03T02:21:28.068Z,-2.46
2019-02-03T02:22:28.077Z,-2.43
2019-02-03T02:23:28.079Z,-2.45
2019-02-03T02:24:28.084Z,-2.40
2019-02-03T02:25:28.086Z,-2.46
2019-02-03T02:26:28.092Z,-2.39
2019-02-03T02:27:28.096Z,-2.45
2019-02-03T02:28:28.100Z,-2.46
2019-02-03T02:29:28.106Z,-2.48
2019-02-03T02:30:28.168Z,-2.39
2019-02-03T02:31:28.113Z,-2.46
2019-02-03T02:32:28.117Z,-2.46
2019-02-03T02:33:28.121Z,-2.42
2019-02-03T02:34:28.135Z,-2.39
2019-02-03T02:35:28.135Z,-2.45
2019-02-03T02:36:28.138Z,-2.34
2019-02-03T02:37:28.152Z,-2.32
2019-02-03T02:38:28.145Z,-2.42
2019-02-03T02:39:28.153Z,-2.32
2019-02-03T02:40:28.155Z,-2.37
2019-02-03T02:41:28.158Z,-2.32
2019-02-03T02:42:28.168Z,-2.37
2019-02-03T02:43:28.169Z,-2.37
2019-02-03T02:44:28.176Z,-2.40
2019-02-03T02:45:28.177Z,-2.34
2019-02-03T02:46:28.189Z,-2.40
2019-02-03T02:47:28.186Z,-2.46
2019-02-03T02:48:28.192Z,-2.48
2019-02-03T02:49:28.197Z,-2.52
2019-02-03T02:50:28.198Z,-2.43
2019-02-03T02:51:28.206Z,-2.46
2019-02-03T02:52:28.219Z,-2.42
2019-02-03T02:53:28.214Z,-2.48
2019-02-03T02:54:28.216Z,-2.43
2019-02-03T02:55:28.221Z,-2.43
2019-02-03T02:56:28.224Z,-2.49
2019-02-03T02:57:28.229Z,-2.43
2019-02-03T02:58:28.241Z,-2.42
2019-02-03T02:59:28.238Z,-2.40
2019-02-03T03:00:28.241Z,-2.42
2019-02-03T03:01:28.246Z,-2.45
2019-02-03T03:02:28.252Z,-2.40
2019-02-03T03:03:28.258Z,-2.58
2019-02-03T03:04:28.264Z,-2.43
2019-02-03T03:05:28.264Z,-2.55
2019-02-03T03:06:28.271Z,-2.45
2019-02-03T03:07:28.273Z,-2.43
2019-02-03T03:08:28.276Z,-2.48
2019-02-03T03:09:28.284Z,-2.43
2019-02-03T03:10:28.284Z,-2.43
2019-02-03T03:11:28.291Z,-2.43
2019-02-03T03:12:28.295Z,-2.53
2019-02-03T03:13:28.302Z,-2.56
2019-02-03T03:14:28.303Z,-2.66
2019-02-03T03:15:28.309Z,-2.52
2019-02-03T03:16:28.314Z,-2.45
2019-02-03T03:17:28.319Z,-2.55
2019-02-03T03:18:28.320Z,-2.50
2019-02-03T03:19:28.326Z,-2.56
2019-02-03T03:20:28.329Z,-2.50
2019-02-03T03:21:28.335Z,-2.53
2019-02-03T03:22:28.345Z,-2.55
2019-02-03T03:23:28.343Z,-2.55
2019-02-03T03:24:28.350Z,-2.53
2019-02-03T03:25:28.350Z,-2.61
2019-02-03T03:26:28.355Z,-2.63
2019-02-03T03:27:28.360Z,-2.60
2019-02-03T03:28:28.362Z,-2.50
2019-02-03T03:29:28.370Z,-2.52
2019-02-03T03:30:28.382Z,-2.60
2019-02-03T03:31:28.379Z,-2.63
2019-02-03T03:32:28.385Z,-2.63
2019-02-03T03:33:28.397Z,-2.68
2019-02-03T03:34:28.392Z,-2.73
2019-02-03T03:35:28.394Z,-2.70
2019-02-03T03:36:28.399Z,-2.68
2019-02-03T03:37:28.403Z,-2.68
2019-02-03T03:38:32.151Z,-2.73
2019-02-03T03:39:28.409Z,-2.68
2019-02-03T03:40:28.412Z,-2.73
2019-02-03T03:41:28.420Z,-2.67
2019-02-03T03:42:28.422Z,-2.64
2019-02-03T03:43:28.428Z,-2.61
2019-02-03T03:44:28.430Z,-2.58
2019-02-03T03:45:28.443Z,-2.55
2019-02-03T03:46:28.445Z,-2.68
2019-02-03T03:47:28.442Z,-2.64
2019-02-03T03:48:28.448Z,-2.73
2019-02-03T03:49:28.451Z,-2.73
2019-02-03T03:50:28.458Z,-2.67
2019-02-03T03:51:28.461Z,-2.68
2019-02-03T03:52:28.461Z,-2.61
2019-02-03T03:53:28.471Z,-2.64
2019-02-03T03:54:28.475Z,-2.58
2019-02-03T03:55:28.477Z,-2.60
2019-02-03T03:56:28.479Z,-2.67
2019-02-03T03:57:28.483Z,-2.60
2019-02-03T03:58:28.487Z,-2.60
2019-02-03T03:59:28.509Z,-2.67
2019-02-03T04:00:28.496Z,-2.61
2019-02-03T04:01:28.498Z,-2.70
2019-02-03T04:02:28.504Z,-2.63
2019-02-03T04:03:28.507Z,-2.61
2019-02-03T04:04:28.516Z,-2.60
2019-02-03T04:05:28.519Z,-2.60
2019-02-03T04:06:28.524Z,-2.58
2019-02-03T04:07:28.525Z,-2.66
2019-02-03T04:08:28.529Z,-2.60
2019-02-03T04:09:28.531Z,-2.68
2019-02-03T04:10:28.539Z,-2.73
2019-02-03T04:11:28.542Z,-2.67
2019-02-03T04:12:28.550Z,-2.67
2019-02-03T04:13:28.551Z,-2.77
2019-02-03T04:14:28.555Z,-2.73
2019-02-03T04:15:28.566Z,-2.71
2019-02-03T04:16:28.562Z,-2.66
2019-02-03T04:17:28.565Z,-2.74
2019-02-03T04:18:28.570Z,-2.70
2019-02-03T04:19:28.577Z,-2.67
2019-02-03T04:20:28.586Z,-2.78
2019-02-03T04:21:28.582Z,-2.66
2019-02-03T04:22:28.590Z,-2.71
2019-02-03T04:23:28.594Z,-2.70
2019-02-03T04:24:28.595Z,-2.68
2019-02-03T04:25:28.619Z,-2.73
2019-02-03T04:26:28.609Z,-2.82
2019-02-03T04:27:28.606Z,-2.71
2019-02-03T04:28:28.610Z,-2.82
2019-02-03T04:29:28.621Z,-2.74
2019-02-03T04:30:28.623Z,-2.82
2019-02-03T04:31:28.625Z,-2.77
2019-02-03T04:32:28.627Z,-2.73
2019-02-03T04:33:28.631Z,-2.74
2019-02-03T04:34:29.902Z,-2.78
2019-02-03T04:35:28.638Z,-2.71
2019-02-03T04:36:28.643Z,-2.79
2019-02-03T04:37:28.648Z,-2.79
2019-02-03T04:38:28.654Z,-2.77
2019-02-03T04:39:28.656Z,-2.78
2019-02-03T04:40:28.657Z,-2.74
2019-02-03T04:41:28.664Z,-2.77
2019-02-03T04:42:28.664Z,-2.74
2019-02-03T04:43:28.672Z,-2.71
2019-02-03T04:44:28.674Z,-2.74
2019-02-03T04:45:28.678Z,-2.71
2019-02-03T04:46:28.683Z,-2.71
2019-02-03T04:47:28.699Z,-2.71
2019-02-03T04:48:28.691Z,-2.78
2019-02-03T04:49:28.692Z,-2.71
2019-02-03T04:50:28.700Z,-2.74
2019-02-03T04:51:28.705Z,-2.70
2019-02-03T04:52:28.704Z,-2.74
2019-02-03T04:53:28.708Z,-2.71
2019-02-03T04:54:28.720Z,-2.79
2019-02-03T04:55:28.719Z,-2.82
2019-02-03T04:56:28.724Z,-2.71
2019-02-03T04:57:28.727Z,-2.71
2019-02-03T04:58:28.731Z,-2.68
2019-02-03T04:59:28.776Z,-2.74
2019-02-03T05:00:28.743Z,-2.74
2019-02-03T05:01:28.740Z,-2.71
2019-02-03T05:02:28.745Z,-2.77
2019-02-03T05:03:28.755Z,-2.73
2019-02-03T05:04:28.754Z,-2.74
2019-02-03T05:05:28.758Z,-2.79
2019-02-03T05:06:28.764Z,-2.77
2019-02-03T05:07:28.769Z,-2.77
2019-02-03T05:08:28.769Z,-2.77
2019-02-03T05:09:28.773Z,-2.81
2019-02-03T05:10:28.777Z,-2.82
2019-02-03T05:11:28.788Z,-2.73
2019-02-03T05:12:28.786Z,-2.78
2019-02-03T05:13:28.790Z,-2.79
2019-02-03T05:14:28.799Z,-2.79
2019-02-03T05:15:28.804Z,-2.81
2019-02-03T05:16:28.801Z,-2.81
2019-02-03T05:17:28.809Z,-2.85
2019-02-03T05:18:28.811Z,-2.81
2019-02-03T05:19:28.819Z,-2.81
2019-02-03T05:20:28.819Z,-2.81
2019-02-03T05:21:28.823Z,-2.82
2019-02-03T05:22:28.835Z,-2.81
2019-02-03T05:23:28.831Z,-2.81
2019-02-03T05:24:28.842Z,-2.81
2019-02-03T05:25:28.859Z,-2.84
2019-02-03T05:26:28.845Z,-2.81
2019-02-03T05:27:28.848Z,-2.81
2019-02-03T05:28:28.853Z,-2.81
2019-02-03T05:29:28.853Z,-2.86
2019-02-03T05:30:28.858Z,-2.71
2019-02-03T05:31:28.867Z,-2.85
2019-02-03T05:32:28.867Z,-2.82
2019-02-03T05:33:28.879Z,-2.82
2019-02-03T05:34:28.875Z,-2.85
2019-02-03T05:35:28.878Z,-2.86
2019-02-03T05:36:28.882Z,-2.92
2019-02-03T05:37:28.886Z,-2.84
2019-02-03T05:38:28.890Z,-2.85
2019-02-03T05:39:28.896Z,-2.82
2019-02-03T05:40:28.898Z,-2.81
2019-02-03T05:41:28.901Z,-2.96
2019-02-03T05:42:28.906Z,-2.84
2019-02-03T05:43:28.911Z,-2.82
2019-02-03T05:44:28.912Z,-2.84
2019-02-03T05:45:28.923Z,-2.84
2019-02-03T05:46:28.929Z,-2.84
2019-02-03T05:47:28.952Z,-2.85
2019-02-03T05:48:28.938Z,-2.91
2019-02-03T05:49:28.935Z,-2.84
2019-02-03T05:50:28.938Z,-2.86
2019-02-03T05:51:28.943Z,-2.85
2019-02-03T05:52:28.945Z,-2.81
2019-02-03T05:53:28.952Z,-2.82
2019-02-03T05:54:28.955Z,-2.84
2019-02-03T05:55:28.959Z,-2.81
2019-02-03T05:56:28.963Z,-2.82
2019-02-03T05:57:28.964Z,-2.84
2019-02-03T05:58:28.972Z,-2.96
2019-02-03T05:59:28.978Z,-2.88
2019-02-03T06:00:28.976Z,-2.96
2019-02-03T06:01:28.981Z,-2.92
2019-02-03T06:02:28.985Z,-2.96
2019-02-03T06:03:28.991Z,-2.99
2019-02-03T06:04:28.994Z,-2.97
2019-02-03T06:05:29.159Z,-2.97
2019-02-03T06:06:29.003Z,-3.02
2019-02-03T06:07:29.005Z,-3.02
2019-02-03T06:08:29.014Z,-3.02
2019-02-03T06:09:36.230Z,-2.96
2019-02-03T06:10:29.016Z,-2.96
2019-02-03T06:11:29.021Z,-2.92
2019-02-03T06:12:29.024Z,-2.94
2019-02-03T06:13:29.028Z,-2.92
2019-02-03T06:14:29.035Z,-2.94
2019-02-03T06:15:29.036Z,-2.96
2019-02-03T06:16:29.042Z,-2.91
2019-02-03T06:17:29.045Z,-3.00
2019-02-03T06:18:29.049Z,-2.86
2019-02-03T06:19:29.145Z,-3.03
2019-02-03T06:20:29.056Z,-3.02
2019-02-03T06:21:29.059Z,-3.00
2019-02-03T06:22:29.068Z,-3.02
2019-02-03T06:23:29.067Z,-3.00
2019-02-03T06:24:29.069Z,-3.03
2019-02-03T06:25:29.075Z,-3.00
2019-02-03T06:26:29.078Z,-3.05
2019-02-03T06:27:29.085Z,-3.07
2019-02-03T06:28:29.088Z,-3.02
2019-02-03T06:29:29.093Z,-3.05
2019-02-03T06:30:29.093Z,-3.03
2019-02-03T06:31:29.097Z,-3.09
2019-02-03T06:32:29.100Z,-3.00
2019-02-03T06:33:29.104Z,-3.02
2019-02-03T06:34:29.109Z,-3.03
2019-02-03T06:35:29.114Z,-3.06
2019-02-03T06:36:29.174Z,-2.94
2019-02-03T06:37:29.119Z,-3.03
2019-02-03T06:38:29.125Z,-3.02
2019-02-03T06:39:29.252Z,-3.03
2019-02-03T06:40:29.130Z,-3.05
2019-02-03T06:41:29.138Z,-3.06
2019-02-03T06:42:29.146Z,-2.92
2019-02-03T06:43:29.141Z,-3.02
2019-02-03T06:44:29.145Z,-2.94
2019-02-03T06:45:29.149Z,-3.02
2019-02-03T06:46:29.152Z,-2.97
2019-02-03T06:47:29.156Z,-2.97
2019-02-03T06:48:29.160Z,-3.02
2019-02-03T06:49:29.164Z,-2.92
2019-02-03T06:50:29.179Z,-2.92
2019-02-03T06:51:29.172Z,-3.03
2019-02-03T06:52:29.176Z,-3.05
2019-02-03T06:53:29.179Z,-2.99
2019-02-03T06:54:29.182Z,-2.96
2019-02-03T06:55:29.187Z,-2.84
2019-02-03T06:56:29.196Z,-2.96
2019-02-03T06:57:29.197Z,-2.89
2019-02-03T06:58:29.200Z,-2.86
2019-02-03T06:59:29.206Z,-2.88
2019-02-03T07:00:29.207Z,-2.97
2019-02-03T07:01:29.208Z,-2.96
2019-02-03T07:02:29.214Z,-2.82
2019-02-03T07:03:29.216Z,-2.97
2019-02-03T07:04:29.220Z,-2.97
2019-02-03T07:05:29.225Z,-2.92
2019-02-03T07:06:29.230Z,-2.96
2019-02-03T07:07:29.232Z,-2.94
2019-02-03T07:08:29.236Z,-2.86
2019-02-03T07:09:29.240Z,-2.89
2019-02-03T07:10:29.244Z,-2.82
2019-02-03T07:11:29.248Z,-2.82
2019-02-03T07:12:29.258Z,-2.84
2019-02-03T07:13:29.257Z,-2.84
2019-02-03T07:14:29.259Z,-2.85
2019-02-03T07:15:29.263Z,-2.86
2019-02-03T07:16:40.180Z,-2.89
2019-02-03T07:17:29.273Z,-2.88
2019-02-03T07:18:29.275Z,-2.86
2019-02-03T07:19:29.280Z,-2.97
2019-02-03T07:20:29.282Z,-2.97
2019-02-03T07:21:29.292Z,-3.02
2019-02-03T07:22:29.290Z,-2.94
2019-02-03T07:23:29.294Z,-2.96
2019-02-03T07:24:29.297Z,-2.97
2019-02-03T07:25:29.302Z,-3.00
2019-02-03T07:26:29.311Z,-2.96
2019-02-03T07:27:29.311Z,-2.96
2019-02-03T07:28:29.313Z,-2.84
2019-02-03T07:29:29.318Z,-2.92
2019-02-03T07:30:29.321Z,-2.85
2019-02-03T07:31:29.324Z,-2.81
2019-02-03T07:32:29.328Z,-2.79
2019-02-03T07:33:29.331Z,-2.81
2019-02-03T07:34:29.336Z,-2.85
2019-02-03T07:35:29.340Z,-2.82
2019-02-03T07:36:29.344Z,-2.77
2019-02-03T07:37:29.346Z,-2.78
2019-02-03T07:38:29.351Z,-2.79
2019-02-03T07:39:29.358Z,-2.79
2019-02-03T07:40:29.360Z,-2.78
2019-02-03T07:41:29.362Z,-2.78
2019-02-03T07:42:29.368Z,-2.85
2019-02-03T07:43:29.372Z,-2.82
2019-02-03T07:44:29.376Z,-2.89
2019-02-03T07:45:29.378Z,-2.82
2019-02-03T07:46:29.383Z,-2.85
2019-02-03T07:47:29.388Z,-2.84
2019-02-03T07:48:29.390Z,-2.81
2019-02-03T07:49:29.393Z,-2.81
2019-02-03T07:50:29.397Z,-2.77
2019-02-03T07:51:29.401Z,-2.81
2019-02-03T07:52:29.406Z,-2.74
2019-02-03T07:53:29.419Z,-2.78
2019-02-03T07:54:29.413Z,-2.68
2019-02-03T07:55:29.418Z,-2.68
2019-02-03T07:56:29.419Z,-2.71
2019-02-03T07:57:29.425Z,-2.74
2019-02-03T07:58:29.432Z,-2.74
2019-02-03T07:59:29.434Z,-2.74
2019-02-03T08:00:29.437Z,-2.81
2019-02-03T08:01:29.440Z,-2.81
2019-02-03T08:02:29.444Z,-2.81
2019-02-03T08:03:29.452Z,-2.73
2019-02-03T08:04:29.454Z,-2.77
2019-02-03T08:05:29.455Z,-2.71
2019-02-03T08:06:29.484Z,-2.74
2019-02-03T08:07:29.464Z,-2.78
2019-02-03T08:08:29.469Z,-2.73
2019-02-03T08:09:29.470Z,-2.70
2019-02-03T08:10:29.813Z,-2.67
2019-02-03T08:11:29.479Z,-2.66
2019-02-03T08:12:29.483Z,-2.68
2019-02-03T08:13:29.488Z,-2.55
2019-02-03T08:14:29.493Z,-2.50
2019-02-03T08:15:29.494Z,-2.61
2019-02-03T08:16:29.514Z,-2.60
2019-02-03T08:17:29.504Z,-2.56
2019-02-03T08:18:29.508Z,-2.45
2019-02-03T08:19:29.511Z,-2.55
2019-02-03T08:20:29.520Z,-2.48
2019-02-03T08:21:29.517Z,-2.58
2019-02-03T08:22:29.523Z,-2.52
2019-02-03T08:23:29.527Z,-2.40
2019-02-03T08:24:29.532Z,-2.40
2019-02-03T08:25:29.537Z,-2.42
2019-02-03T08:26:29.538Z,-2.35
2019-02-03T08:27:29.543Z,-2.30
2019-02-03T08:28:29.548Z,-2.23
2019-02-03T08:29:29.552Z,-2.26
2019-02-03T08:30:29.555Z,-2.20
2019-02-03T08:31:29.562Z,-2.18
2019-02-03T08:32:29.563Z,-2.08
2019-02-03T08:33:29.567Z,-2.12
2019-02-03T08:34:29.571Z,-2.16
2019-02-03T08:35:29.577Z,-1.98
2019-02-03T08:36:29.626Z,-2.09
2019-02-03T08:37:29.584Z,-2.06
2019-02-03T08:38:29.589Z,-2.09
2019-02-03T08:39:29.594Z,-1.98
2019-02-03T08:40:36.905Z,-1.97
2019-02-03T08:41:29.601Z,-1.94
2019-02-03T08:42:29.605Z,-1.95
2019-02-03T08:43:29.615Z,-1.90
2019-02-03T08:44:29.616Z,-1.84
2019-02-03T08:45:29.620Z,-1.88
2019-02-03T08:46:29.624Z,-1.82
2019-02-03T08:47:29.631Z,-1.90
2019-02-03T08:48:29.633Z,-1.85
2019-02-03T08:49:29.638Z,-1.82
2019-02-03T08:50:29.646Z,-1.82
2019-02-03T08:51:32.292Z,-1.87
2019-02-03T08:52:29.652Z,-1.84
2019-02-03T08:53:29.656Z,-1.87
2019-02-03T08:54:29.660Z,-1.85
2019-02-03T08:55:29.665Z,-1.84
2019-02-03T08:56:29.673Z,-1.82
2019-02-03T08:57:29.674Z,-1.74
2019-02-03T08:58:29.682Z,-1.80
2019-02-03T08:59:29.684Z,-1.79
2019-02-03T09:00:29.692Z,-1.76
2019-02-03T09:01:29.693Z,-1.84
2019-02-03T09:02:29.711Z,-2.00
2019-02-03T09:03:29.705Z,-1.92
2019-02-03T09:04:29.708Z,-1.97
2019-02-03T09:05:29.711Z,-1.97
2019-02-03T09:06:29.721Z,-1.92
2019-02-03T09:07:29.728Z,-1.87
2019-02-03T09:08:29.727Z,-1.85
2019-02-03T09:09:29.730Z,-1.74
2019-02-03T09:10:29.738Z,-1.76
2019-02-03T09:11:29.740Z,-1.84
2019-02-03T09:12:29.744Z,-1.88
2019-02-03T09:13:29.752Z,-1.94
2019-02-03T09:14:29.758Z,-2.05
2019-02-03T09:15:29.759Z,-2.05
2019-02-03T09:16:29.765Z,-2.03
2019-02-03T09:17:29.769Z,-1.98
2019-02-03T09:18:29.774Z,-2.03
2019-02-03T09:19:29.780Z,-2.06
2019-02-03T09:20:29.782Z,-2.06
2019-02-03T09:21:29.790Z,-1.97
2019-02-03T09:22:29.791Z,-2.08
2019-02-03T09:23:29.801Z,-2.02
2019-02-03T09:24:29.800Z,-1.97
2019-02-03T09:25:29.807Z,-1.97
2019-02-03T09:26:29.809Z,-1.95
2019-02-03T09:27:29.815Z,-1.92
2019-02-03T09:28:29.821Z,-2.00
2019-02-03T09:29:29.823Z,-2.00
2019-02-03T09:30:29.829Z,-1.92
2019-02-03T09:31:29.834Z,-1.94
2019-02-03T09:32:29.837Z,-1.91
2019-02-03T09:33:29.846Z,-1.84
2019-02-03T09:34:29.846Z,-1.87
2019-02-03T09:35:29.852Z,-1.76
2019-02-03T09:36:29.856Z,-1.79
2019-02-03T09:37:29.865Z,-1.66
2019-02-03T09:38:29.865Z,-1.64
2019-02-03T09:39:29.874Z,-1.58
2019-02-03T09:40:29.877Z,-1.55
2019-02-03T09:41:29.885Z,-1.52
2019-02-03T09:42:29.887Z,-1.58
2019-02-03T09:43:29.892Z,-1.51
2019-02-03T09:44:29.896Z,-1.54
2019-02-03T09:45:29.904Z,-1.59
2019-02-03T09:46:29.904Z,-1.52
2019-02-03T09:47:29.909Z,-1.54
2019-02-03T09:48:29.917Z,-1.62
2019-02-03T09:49:29.919Z,-1.61
2019-02-03T09:50:29.924Z,-1.66
2019-02-03T09:51:29.931Z,-1.61
2019-02-03T09:52:29.932Z,-1.72
2019-02-03T09:53:29.938Z,-1.74
2019-02-03T09:54:29.941Z,-1.66
2019-02-03T09:55:29.947Z,-1.88
2019-02-03T09:56:29.954Z,-1.79
2019-02-03T09:57:29.959Z,-1.82
2019-02-03T09:58:29.969Z,-1.79
2019-02-03T09:59:29.967Z,-1.90
2019-02-03T10:00:29.976Z,-2.18
2019-02-03T10:01:29.978Z,-2.30
2019-02-03T10:02:29.984Z,-2.30
2019-02-03T10:03:29.989Z,-2.35
2019-02-03T10:04:29.990Z,-2.39
2019-02-03T10:05:29.995Z,-2.18
2019-02-03T10:06:30.000Z,-2.15
2019-02-03T10:07:30.011Z,-2.08
2019-02-03T10:08:40.343Z,-2.08
2019-02-03T10:09:30.019Z,-1.97
2019-02-03T10:10:30.023Z,-1.98
2019-02-03T10:11:30.026Z,-2.06
2019-02-03T10:12:30.031Z,-1.92
2019-02-03T10:13:30.034Z,-1.90
2019-02-03T10:14:30.039Z,-1.84
2019-02-03T10:15:30.046Z,-1.82
2019-02-03T10:16:30.050Z,-1.79
2019-02-03T10:17:30.058Z,-1.77
2019-02-03T10:18:30.060Z,-1.82
2019-02-03T10:19:30.067Z,-1.80
2019-02-03T10:20:30.071Z,-1.79
2019-02-03T10:21:30.072Z,-1.70
2019-02-03T10:22:30.077Z,-1.64
2019-02-03T10:23:30.088Z,-1.54
2019-02-03T10:24:41.685Z,-1.52
2019-02-03T10:25:30.091Z,-1.40
2019-02-03T10:26:30.100Z,-1.34
2019-02-03T10:27:30.102Z,-1.35
2019-02-03T10:28:30.109Z,-1.23
2019-02-03T10:29:30.112Z,-1.40
2019-02-03T10:30:30.120Z,-1.55
2019-02-03T10:31:30.124Z,-1.54
2019-02-03T10:32:30.409Z,-1.66
2019-02-03T10:33:30.135Z,-1.64
2019-02-03T10:34:30.137Z,-1.58
2019-02-03T10:35:30.145Z,-1.56
2019-02-03T10:36:30.249Z,-1.45
2019-02-03T10:37:30.152Z,-1.31
2019-02-03T10:38:30.161Z,-1.31
2019-02-03T10:39:33.005Z,-1.22
2019-02-03T10:40:30.172Z,-1.16
2019-02-03T10:41:30.174Z,-1.19
2019-02-03T10:42:30.180Z,-1.31
2019-02-03T10:43:30.183Z,-1.40
2019-02-03T10:44:30.187Z,-1.51
2019-02-03T10:45:30.206Z,-1.69
2019-02-03T10:46:30.198Z,-1.84
2019-02-03T10:47:30.208Z,-1.82
2019-02-03T10:48:30.210Z,-1.94
2019-02-03T10:49:30.214Z,-2.30
2019-02-03T10:50:30.223Z,-2.29
2019-02-03T10:51:30.226Z,-2.27
2019-02-03T10:52:30.229Z,-2.29
2019-02-03T10:53:30.233Z,-2.16
2019-02-03T10:54:30.291Z,-2.15
2019-02-03T10:55:30.245Z,-2.18
2019-02-03T10:56:30.248Z,-2.09
2019-02-03T10:57:30.258Z,-2.03
2019-02-03T10:58:30.260Z,-2.08
2019-02-03T10:59:30.266Z,-2.09
2019-02-03T11:00:30.269Z,-2.18
2019-02-03T11:01:30.273Z,-2.09
2019-02-03T11:02:30.278Z,-1.98
2019-02-03T11:03:30.288Z,-1.87
2019-02-03T11:04:30.287Z,-1.74
2019-02-03T11:05:30.291Z,-1.66
2019-02-03T11:06:30.297Z,-1.52
2019-02-03T11:07:30.302Z,-1.33
2019-02-03T11:08:30.306Z,-1.31
2019-02-03T11:09:30.313Z,-1.25
2019-02-03T11:10:30.321Z,-1.16
2019-02-03T11:11:36.767Z,-1.15
2019-02-03T11:12:30.324Z,-1.43
2019-02-03T11:13:30.333Z,-1.61
2019-02-03T11:14:30.345Z,-1.49
2019-02-03T11:15:30.344Z,-1.80
2019-02-03T11:16:30.347Z,-1.74
2019-02-03T11:17:30.350Z,-1.79
2019-02-03T11:18:30.366Z,-1.67
2019-02-03T11:19:30.361Z,-2.03
2019-02-03T11:20:30.367Z,-2.00
2019-02-03T11:21:30.372Z,-2.10
2019-02-03T11:22:30.382Z,-1.95
2019-02-03T11:23:30.384Z,-1.91
2019-02-03T11:24:30.386Z,-1.80
2019-02-03T11:25:30.391Z,-2.03
2019-02-03T11:26:30.397Z,-2.02
2019-02-03T11:27:30.404Z,-1.97
2019-02-03T11:28:30.406Z,-1.90
2019-02-03T11:29:30.413Z,-1.84
2019-02-03T11:30:30.414Z,-2.03
2019-02-03T11:31:30.422Z,-2.20
2019-02-03T11:32:30.429Z,-2.23
2019-02-03T11:33:30.433Z,-2.37
2019-02-03T11:34:30.436Z,-2.27
2019-02-03T11:35:30.443Z,-2.02
2019-02-03T11:36:30.448Z,-1.90
2019-02-03T11:37:30.451Z,-1.79
2019-02-03T11:38:30.461Z,-1.72
2019-02-03T11:39:30.462Z,-1.61
2019-02-03T11:40:30.468Z,-1.54
2019-02-03T11:41:30.473Z,-1.43
2019-02-03T11:42:30.483Z,-1.27
2019-02-03T11:43:30.487Z,-1.20
2019-02-03T11:44:30.486Z,-0.98
2019-02-03T11:45:30.491Z,-0.85
2019-02-03T11:46:30.497Z,-0.86
2019-02-03T11:47:30.502Z,-0.95
2019-02-03T11:48:30.510Z,-1.22
2019-02-03T11:49:30.511Z,-1.17
2019-02-03T11:50:30.515Z,-1.20
2019-02-03T11:51:30.524Z,-1.19
2019-02-03T11:52:30.530Z,-0.97
2019-02-03T11:53:30.531Z,-0.94
2019-02-03T11:54:30.543Z,-0.92
2019-02-03T11:55:30.546Z,-0.86
2019-02-03T11:56:30.551Z,-0.91
2019-02-03T11:57:30.555Z,-0.82
2019-02-03T11:58:30.562Z,-0.83
2019-02-03T11:59:30.564Z,-0.82
2019-02-03T12:00:30.569Z,-1.16
2019-02-03T12:01:30.577Z,-1.31
2019-02-03T12:02:41.503Z,-1.25
2019-02-03T12:03:30.585Z,-1.23
2019-02-03T12:04:30.592Z,-1.27
2019-02-03T12:05:30.596Z,-1.16
2019-02-03T12:06:30.603Z,-1.09
2019-02-03T12:07:30.609Z,-0.97
2019-02-03T12:08:30.611Z,-0.89
2019-02-03T12:09:30.617Z,-0.73
2019-02-03T12:10:30.624Z,-0.73
2019-02-03T12:11:30.628Z,-0.62
2019-02-03T12:12:30.634Z,-0.46
2019-02-03T12:13:30.639Z,-0.47
2019-02-03T12:14:30.648Z,-0.47
2019-02-03T12:15:30.654Z,-0.36
2019-02-03T12:16:30.656Z,-0.26
2019-02-03T12:17:30.662Z,-0.23
2019-02-03T12:18:30.666Z,-0.31
2019-02-03T12:19:30.673Z,-0.73
2019-02-03T12:20:30.681Z,-0.97
2019-02-03T12:21:30.685Z,-0.79
2019-02-03T12:22:30.690Z,-0.82
2019-02-03T12:23:30.697Z,-0.75
2019-02-03T12:24:30.705Z,-0.65
2019-02-03T12:25:30.711Z,-0.52
2019-02-03T12:26:30.713Z,-0.49
2019-02-03T12:27:30.722Z,-0.42
2019-02-03T12:28:30.724Z,-0.39
2019-02-03T12:29:30.730Z,-0.33
2019-02-03T12:30:30.736Z,-0.43
2019-02-03T12:31:30.744Z,-0.42
2019-02-03T12:32:30.754Z,-0.39
2019-02-03T12:33:30.755Z,-0.51
2019-02-03T12:34:30.760Z,-0.40
2019-02-03T12:35:30.771Z,-0.49
2019-02-03T12:36:30.772Z,-0.51
2019-02-03T12:37:30.778Z,-0.37
2019-02-03T12:38:30.786Z,-0.40
2019-02-03T12:39:30.793Z,-0.31
2019-02-03T12:40:30.797Z,-0.29
2019-02-03T12:41:30.800Z,-0.46
2019-02-03T12:42:30.810Z,-0.39
2019-02-03T12:43:30.816Z,-0.33
2019-02-03T12:44:30.819Z,-0.39
2019-02-03T12:45:30.828Z,-0.43
2019-02-03T12:46:30.834Z,-0.34
2019-02-03T12:47:30.840Z,-0.29
2019-02-03T12:48:30.847Z,-0.23
2019-02-03T12:49:30.852Z,-0.29
2019-02-03T12:50:31.538Z,-0.44
2019-02-03T12:51:30.863Z,-0.51
2019-02-03T12:52:30.869Z,-0.55